PWSweather.com
Personal Weather Stations
Station Observations
KPAGREEN17
Chestnut Hill Farm, Greensburg, PA 15601

Chestnut Hill FarmGreensburg, PA 15601

Lat: 40.32, Lon: -79.55

Elevation: 1148

Station Type: OR 968

Latest ConditionsUpdated 5:45:03 AM EDT Friday, Sep 19, 2014
Currently Today's Max Today's Min Today's Average
Temperature 48.7°F9.3°C 52.0°F11.1°C 48.7°F9.3°C 50.5°F10.3°C
Dew Point 47.1°F8.4°C 48.5°F9.2°C 45.3°F7.4°C 47.3°F8.5°C
Winds Calm Calm Calm NWCalm NW - Calm Calm
Wind Gusts -- 2.3 mph3.7 kmh - -
Humidity 94% 94% 85% 89%
Pressure 30.24 in1024.0 mb 30.24 in1024.0 mb 30.21 in1023.0 mb -
Hour Temp Dew Point Humidity Winds Wind Gusts Pressure Precip Precip Rate Daily Precip Total
05:45 AM 48.7°F9.3°C 47.1°F8.4°C 94% Calm Calm -- 30.24 in1024.0 mb 0.00 in0.0 mm 0.00 in/hr0.0 mm/hr 0.00 in0.0 mm
05:30 AM 48.9°F9.4°C 47.3°F8.5°C 94% Calm Calm -- 30.24 in1024.0 mb 0.00 in0.0 mm 0.00 in/hr0.0 mm/hr 0.00 in0.0 mm
05:15 AM 49.3°F9.6°C 47.1°F8.4°C 92% Calm Calm 1.2 mph1.9 kmh 30.24 in1024.0 mb 0.00 in0.0 mm 0.00 in/hr0.0 mm/hr 0.00 in0.0 mm
05:00 AM 49.3°F9.6°C 47.1°F8.4°C 92% Calm Calm -- 30.21 in1023.0 mb 0.00 in0.0 mm 0.00 in/hr0.0 mm/hr 0.00 in0.0 mm
04:45 AM 49.5°F9.7°C 47.2°F8.4°C 92% Calm Calm -- 30.24 in1024.0 mb 0.00 in0.0 mm 0.00 in/hr0.0 mm/hr 0.00 in0.0 mm
04:30 AM 49.6°F9.8°C 47.1°F8.4°C 91% Calm Calm 1.2 mph1.9 kmh 30.24 in1024.0 mb 0.00 in0.0 mm 0.00 in/hr0.0 mm/hr 0.00 in0.0 mm
04:15 AM 49.8°F9.9°C 47.3°F8.5°C 91% Calm Calm -- 30.21 in1023.0 mb 0.00 in0.0 mm 0.00 in/hr0.0 mm/hr 0.00 in0.0 mm
04:00 AM 50.0°F10.0°C 46.9°F8.3°C 89% Calm Calm 1.2 mph1.9 kmh 30.21 in1023.0 mb 0.00 in0.0 mm 0.00 in/hr0.0 mm/hr 0.00 in0.0 mm
03:45 AM 50.5°F10.3°C 47.1°F8.4°C 88% Calm Calm -- 30.21 in1023.0 mb 0.00 in0.0 mm 0.00 in/hr0.0 mm/hr 0.00 in0.0 mm
03:30 AM 50.9°F10.5°C 47.5°F8.6°C 88% Calm Calm -- 30.21 in1023.0 mb 0.00 in0.0 mm 0.00 in/hr0.0 mm/hr 0.00 in0.0 mm
03:15 AM 51.3°F10.7°C 47.8°F8.8°C 88% Calm Calm -- 30.21 in1023.0 mb 0.00 in0.0 mm 0.00 in/hr0.0 mm/hr 0.00 in0.0 mm
03:00 AM 51.6°F10.9°C 48.2°F9.0°C 88% Calm Calm -- 30.21 in1023.0 mb 0.00 in0.0 mm 0.00 in/hr0.0 mm/hr 0.00 in0.0 mm
02:45 AM 51.8°F11.0°C 48.4°F9.1°C 88% Calm Calm 1.2 mph1.9 kmh 30.21 in1023.0 mb 0.00 in0.0 mm 0.00 in/hr0.0 mm/hr 0.00 in0.0 mm
02:30 AM 52.0°F11.1°C 48.5°F9.2°C 88% Calm Calm 1.2 mph1.9 kmh 30.21 in1023.0 mb 0.00 in0.0 mm 0.00 in/hr0.0 mm/hr 0.00 in0.0 mm
02:15 AM 52.0°F11.1°C 48.5°F9.2°C 88% Calm Calm 2.3 mph3.7 kmh 30.21 in1023.0 mb 0.00 in0.0 mm 0.00 in/hr0.0 mm/hr 0.00 in0.0 mm
02:00 AM 51.8°F11.0°C 48.4°F9.1°C 88% Calm Calm -- 30.21 in1023.0 mb 0.00 in0.0 mm 0.00 in/hr0.0 mm/hr 0.00 in0.0 mm
01:45 AM 51.8°F11.0°C 48.4°F9.1°C 88% Calm Calm -- 30.21 in1023.0 mb 0.00 in0.0 mm 0.00 in/hr0.0 mm/hr 0.00 in0.0 mm
01:30 AM 51.6°F10.9°C 48.2°F9.0°C 88% Calm Calm -- 30.21 in1023.0 mb 0.00 in0.0 mm 0.00 in/hr0.0 mm/hr 0.00 in0.0 mm
01:15 AM 50.5°F10.3°C 47.1°F8.4°C 88% Calm Calm -- 30.21 in1023.0 mb 0.00 in0.0 mm 0.00 in/hr0.0 mm/hr 0.00 in0.0 mm
01:00 AM 49.6°F9.8°C 45.3°F7.4°C 85% Calm Calm -- 30.21 in1023.0 mb 0.00 in0.0 mm 0.00 in/hr0.0 mm/hr 0.00 in0.0 mm
12:45 AM 50.2°F10.1°C 45.8°F7.7°C 85% Calm Calm -- 30.21 in1023.0 mb 0.00 in0.0 mm 0.00 in/hr0.0 mm/hr 0.00 in0.0 mm
12:30 AM 50.7°F10.4°C 46.4°F8.0°C 85% Calm Calm -- 30.21 in1023.0 mb 0.00 in0.0 mm 0.00 in/hr0.0 mm/hr 0.00 in0.0 mm
12:15 AM 51.1°F10.6°C 47.0°F8.3°C 86% Calm Calm -- 30.21 in1023.0 mb 0.00 in0.0 mm 0.00 in/hr0.0 mm/hr 0.00 in0.0 mm
12:00 AM 50.5°F10.3°C 46.5°F8.1°C 86% Calm Calm -- 30.21 in1023.0 mb 0.00 in0.0 mm 0.00 in/hr0.0 mm/hr 0.00 in0.0 mm